sensor_id;sensor_type;location;lat;lon;timestamp;pressure;altitude;pressure_sealevel;temperature;humidity
81151;BME280;70629;-26.026;27.976;2023-07-30T00:00:53;86498.56;;;10.69;41.57
81151;BME280;70629;-26.026;27.976;2023-07-30T00:02:28;86486.09;;;10.75;42.11
81151;BME280;70629;-26.026;27.976;2023-07-30T00:04:03;86496.09;;;10.59;42.22
81151;BME280;70629;-26.026;27.976;2023-07-30T00:05:38;86492.38;;;10.66;41.95
81151;BME280;70629;-26.026;27.976;2023-07-30T00:07:13;86496.78;;;10.32;41.74
81151;BME280;70629;-26.026;27.976;2023-07-30T00:08:48;86493.63;;;10.49;41.40
81151;BME280;70629;-26.026;27.976;2023-07-30T00:10:23;86507.97;;;10.40;40.91
81151;BME280;70629;-26.026;27.976;2023-07-30T00:11:59;86507.66;;;10.21;41.26
81151;BME280;70629;-26.026;27.976;2023-07-30T00:13:34;86501.38;;;10.16;41.85
81151;BME280;70629;-26.026;27.976;2023-07-30T00:15:09;86499.28;;;10.42;42.25
81151;BME280;70629;-26.026;27.976;2023-07-30T00:16:44;86495.00;;;10.23;42.39
81151;BME280;70629;-26.026;27.976;2023-07-30T00:18:19;86508.25;;;10.19;41.81
81151;BME280;70629;-26.026;27.976;2023-07-30T00:19:54;86503.78;;;9.85;43.25
81151;BME280;70629;-26.026;27.976;2023-07-30T00:21:29;86497.28;;;10.29;42.61
81151;BME280;70629;-26.026;27.976;2023-07-30T00:23:04;86496.09;;;10.18;43.41
81151;BME280;70629;-26.026;27.976;2023-07-30T00:24:39;86504.66;;;10.28;43.45
81151;BME280;70629;-26.026;27.976;2023-07-30T00:26:14;86490.47;;;10.00;44.36
81151;BME280;70629;-26.026;27.976;2023-07-30T00:27:49;86486.00;;;9.91;44.21
81151;BME280;70629;-26.026;27.976;2023-07-30T00:29:24;86486.31;;;9.97;44.15
81151;BME280;70629;-26.026;27.976;2023-07-30T00:30:59;86492.63;;;9.63;45.75
81151;BME280;70629;-26.026;27.976;2023-07-30T00:32:34;86497.53;;;9.94;45.20
81151;BME280;70629;-26.026;27.976;2023-07-30T00:34:09;86500.22;;;9.94;45.15
81151;BME280;70629;-26.026;27.976;2023-07-30T00:35:44;86507.09;;;9.83;45.22
81151;BME280;70629;-26.026;27.976;2023-07-30T00:37:19;86506.66;;;9.89;45.14
81151;BME280;70629;-26.026;27.976;2023-07-30T00:38:54;86508.97;;;9.94;45.64
81151;BME280;70629;-26.026;27.976;2023-07-30T00:40:29;86505.66;;;9.68;46.65
81151;BME280;70629;-26.026;27.976;2023-07-30T00:42:04;86498.31;;;9.69;46.62
81151;BME280;70629;-26.026;27.976;2023-07-30T00:43:39;86502.06;;;9.64;46.65
81151;BME280;70629;-26.026;27.976;2023-07-30T00:45:14;86499.81;;;9.86;46.27
81151;BME280;70629;-26.026;27.976;2023-07-30T00:46:49;86501.59;;;9.81;46.29
81151;BME280;70629;-26.026;27.976;2023-07-30T00:48:24;86494.91;;;9.68;46.82
81151;BME280;70629;-26.026;27.976;2023-07-30T00:49:59;86508.50;;;9.59;47.28
81151;BME280;70629;-26.026;27.976;2023-07-30T00:51:35;86503.56;;;9.67;47.10
81151;BME280;70629;-26.026;27.976;2023-07-30T00:53:14;86491.91;;;9.62;47.25
81151;BME280;70629;-26.026;27.976;2023-07-30T00:54:50;86490.34;;;9.32;47.74
81151;BME280;70629;-26.026;27.976;2023-07-30T00:56:27;86498.88;;;9.29;48.06
81151;BME280;70629;-26.026;27.976;2023-07-30T00:58:02;86491.47;;;9.41;47.75
81151;BME280;70629;-26.026;27.976;2023-07-30T00:59:38;86494.94;;;9.43;47.59
81151;BME280;70629;-26.026;27.976;2023-07-30T01:01:13;86492.53;;;9.10;48.55
81151;BME280;70629;-26.026;27.976;2023-07-30T01:02:48;86492.28;;;9.18;48.44
81151;BME280;70629;-26.026;27.976;2023-07-30T01:04:23;86499.72;;;9.19;48.37
81151;BME280;70629;-26.026;27.976;2023-07-30T01:05:59;86492.88;;;9.16;48.40
81151;BME280;70629;-26.026;27.976;2023-07-30T01:07:34;86488.84;;;9.29;48.29
81151;BME280;70629;-26.026;27.976;2023-07-30T01:09:10;86493.72;;;9.07;48.69
81151;BME280;70629;-26.026;27.976;2023-07-30T01:10:46;86505.75;;;8.69;50.37
81151;BME280;70629;-26.026;27.976;2023-07-30T01:12:21;86506.03;;;8.87;49.99
81151;BME280;70629;-26.026;27.976;2023-07-30T01:13:57;86501.63;;;9.17;49.28
81151;BME280;70629;-26.026;27.976;2023-07-30T01:15:33;86498.06;;;9.26;48.83
81151;BME280;70629;-26.026;27.976;2023-07-30T01:17:08;86502.19;;;8.90;50.01
81151;BME280;70629;-26.026;27.976;2023-07-30T01:18:43;86507.69;;;8.80;50.04
81151;BME280;70629;-26.026;27.976;2023-07-30T01:20:18;86498.38;;;8.81;49.57
81151;BME280;70629;-26.026;27.976;2023-07-30T01:21:53;86487.22;;;8.73;49.48
81151;BME280;70629;-26.026;27.976;2023-07-30T01:23:28;86490.09;;;8.77;49.97
81151;BME280;70629;-26.026;27.976;2023-07-30T01:25:04;86500.09;;;8.89;49.81
81151;BME280;70629;-26.026;27.976;2023-07-30T01:26:43;86502.91;;;8.42;50.71
81151;BME280;70629;-26.026;27.976;2023-07-30T01:28:20;86497.81;;;8.71;49.17
81151;BME280;70629;-26.026;27.976;2023-07-30T01:30:06;86489.59;;;8.56;50.48
81151;BME280;70629;-26.026;27.976;2023-07-30T01:31:43;86491.91;;;8.61;50.30
81151;BME280;70629;-26.026;27.976;2023-07-30T01:33:23;86498.78;;;8.53;50.69
81151;BME280;70629;-26.026;27.976;2023-07-30T01:34:58;86507.66;;;8.55;50.69
81151;BME280;70629;-26.026;27.976;2023-07-30T01:36:35;86505.25;;;8.36;51.25
81151;BME280;70629;-26.026;27.976;2023-07-30T01:38:12;86509.72;;;8.68;50.73
81151;BME280;70629;-26.026;27.976;2023-07-30T01:39:49;86500.19;;;8.91;49.43
81151;BME280;70629;-26.026;27.976;2023-07-30T01:41:24;86495.88;;;8.49;51.32
81151;BME280;70629;-26.026;27.976;2023-07-30T01:42:59;86497.72;;;8.58;50.64
81151;BME280;70629;-26.026;27.976;2023-07-30T01:44:34;86506.09;;;8.75;50.17
81151;BME280;70629;-26.026;27.976;2023-07-30T01:46:09;86511.50;;;8.52;50.13
81151;BME280;70629;-26.026;27.976;2023-07-30T01:47:44;86496.81;;;8.53;50.47
81151;BME280;70629;-26.026;27.976;2023-07-30T01:49:19;86495.59;;;8.31;50.54
81151;BME280;70629;-26.026;27.976;2023-07-30T01:50:54;86508.94;;;8.54;50.30
81151;BME280;70629;-26.026;27.976;2023-07-30T01:52:28;86496.50;;;8.47;50.48
81151;BME280;70629;-26.026;27.976;2023-07-30T01:54:03;86498.41;;;8.70;50.47
81151;BME280;70629;-26.026;27.976;2023-07-30T01:55:38;86505.94;;;8.25;51.47
81151;BME280;70629;-26.026;27.976;2023-07-30T01:57:17;86495.56;;;8.19;51.48
81151;BME280;70629;-26.026;27.976;2023-07-30T01:58:52;86500.31;;;8.56;50.20
81151;BME280;70629;-26.026;27.976;2023-07-30T02:00:27;86503.69;;;8.56;50.40
81151;BME280;70629;-26.026;27.976;2023-07-30T02:02:02;86486.56;;;8.61;49.96
81151;BME280;70629;-26.026;27.976;2023-07-30T02:03:38;86491.44;;;8.53;50.18
81151;BME280;70629;-26.026;27.976;2023-07-30T02:05:13;86483.81;;;8.13;50.81
81151;BME280;70629;-26.026;27.976;2023-07-30T02:06:48;86483.69;;;8.46;50.65
81151;BME280;70629;-26.026;27.976;2023-07-30T02:08:23;86485.91;;;8.38;49.68
81151;BME280;70629;-26.026;27.976;2023-07-30T02:09:58;86482.41;;;8.12;51.48
81151;BME280;70629;-26.026;27.976;2023-07-30T02:11:34;86484.28;;;8.21;50.29
81151;BME280;70629;-26.026;27.976;2023-07-30T02:13:09;86487.78;;;8.12;50.70
81151;BME280;70629;-26.026;27.976;2023-07-30T02:14:44;86486.38;;;8.11;51.59
81151;BME280;70629;-26.026;27.976;2023-07-30T02:16:19;86488.50;;;7.89;51.91
81151;BME280;70629;-26.026;27.976;2023-07-30T02:17:54;86485.00;;;7.98;51.36
81151;BME280;70629;-26.026;27.976;2023-07-30T02:19:30;86483.00;;;8.22;51.12
81151;BME280;70629;-26.026;27.976;2023-07-30T02:21:05;86495.72;;;8.10;51.26
81151;BME280;70629;-26.026;27.976;2023-07-30T02:22:39;86494.56;;;7.89;51.62
81151;BME280;70629;-26.026;27.976;2023-07-30T02:24:15;86492.22;;;8.30;49.97
81151;BME280;70629;-26.026;27.976;2023-07-30T02:25:50;86477.53;;;8.08;50.75
81151;BME280;70629;-26.026;27.976;2023-07-30T02:27:24;86485.94;;;8.03;50.98
81151;BME280;70629;-26.026;27.976;2023-07-30T02:29:00;86480.59;;;7.79;51.06
81151;BME280;70629;-26.026;27.976;2023-07-30T02:30:35;86492.09;;;7.93;51.27
81151;BME280;70629;-26.026;27.976;2023-07-30T02:32:10;86494.66;;;8.03;51.16
81151;BME280;70629;-26.026;27.976;2023-07-30T02:33:45;86498.50;;;7.88;51.19
81151;BME280;70629;-26.026;27.976;2023-07-30T02:35:20;86495.38;;;8.04;51.06
81151;BME280;70629;-26.026;27.976;2023-07-30T02:36:55;86503.25;;;7.55;52.78
81151;BME280;70629;-26.026;27.976;2023-07-30T02:38:30;86487.56;;;7.73;52.78
81151;BME280;70629;-26.026;27.976;2023-07-30T02:40:05;86488.97;;;7.85;52.70
81151;BME280;70629;-26.026;27.976;2023-07-30T02:41:40;86486.41;;;7.87;51.75
81151;BME280;70629;-26.026;27.976;2023-07-30T02:43:15;86491.28;;;7.91;51.05
81151;BME280;70629;-26.026;27.976;2023-07-30T02:44:50;86491.53;;;7.95;51.28
81151;BME280;70629;-26.026;27.976;2023-07-30T02:46:25;86491.75;;;7.99;50.40
81151;BME280;70629;-26.026;27.976;2023-07-30T02:48:00;86496.63;;;7.91;51.88
81151;BME280;70629;-26.026;27.976;2023-07-30T02:49:35;86493.50;;;7.83;51.56
81151;BME280;70629;-26.026;27.976;2023-07-30T02:51:10;86493.84;;;7.77;51.60
81151;BME280;70629;-26.026;27.976;2023-07-30T02:52:44;86501.75;;;7.64;52.58
81151;BME280;70629;-26.026;27.976;2023-07-30T02:54:19;86502.00;;;7.79;52.10
81151;BME280;70629;-26.026;27.976;2023-07-30T02:55:57;86495.69;;;7.86;51.94
81151;BME280;70629;-26.026;27.976;2023-07-30T02:57:32;86502.47;;;7.76;51.71
81151;BME280;70629;-26.026;27.976;2023-07-30T02:59:07;86497.53;;;7.49;52.84
81151;BME280;70629;-26.026;27.976;2023-07-30T03:00:41;86499.88;;;7.43;52.62
81151;BME280;70629;-26.026;27.976;2023-07-30T03:02:17;86502.91;;;7.49;53.46
81151;BME280;70629;-26.026;27.976;2023-07-30T03:03:51;86497.81;;;7.53;53.10
81151;BME280;70629;-26.026;27.976;2023-07-30T03:05:27;86500.69;;;7.45;53.27
81151;BME280;70629;-26.026;27.976;2023-07-30T03:07:02;86502.56;;;7.43;53.45
81151;BME280;70629;-26.026;27.976;2023-07-30T03:08:37;86504.78;;;7.58;51.91
81151;BME280;70629;-26.026;27.976;2023-07-30T03:10:12;86487.75;;;7.30;53.45
81151;BME280;70629;-26.026;27.976;2023-07-30T03:11:49;86496.88;;;7.48;53.51
81151;BME280;70629;-26.026;27.976;2023-07-30T03:13:24;86500.81;;;7.59;53.24
81151;BME280;70629;-26.026;27.976;2023-07-30T03:14:59;86507.53;;;7.37;53.03
81151;BME280;70629;-26.026;27.976;2023-07-30T03:16:34;86501.53;;;7.60;52.13
81151;BME280;70629;-26.026;27.976;2023-07-30T03:18:09;86502.19;;;7.37;51.68
81151;BME280;70629;-26.026;27.976;2023-07-30T03:19:43;86503.97;;;7.56;52.29
81151;BME280;70629;-26.026;27.976;2023-07-30T03:21:18;86499.34;;;7.12;52.92
81151;BME280;70629;-26.026;27.976;2023-07-30T03:22:53;86500.88;;;7.26;51.81
81151;BME280;70629;-26.026;27.976;2023-07-30T03:24:28;86502.66;;;7.45;52.02
81151;BME280;70629;-26.026;27.976;2023-07-30T03:26:03;86512.34;;;7.62;51.58
81151;BME280;70629;-26.026;27.976;2023-07-30T03:27:38;86504.75;;;7.35;51.74
81151;BME280;70629;-26.026;27.976;2023-07-30T03:29:14;86518.22;;;7.25;52.12
81151;BME280;70629;-26.026;27.976;2023-07-30T03:30:49;86510.56;;;7.31;52.22
81151;BME280;70629;-26.026;27.976;2023-07-30T03:32:24;86512.59;;;7.10;51.82
81151;BME280;70629;-26.026;27.976;2023-07-30T03:34:00;86521.81;;;7.18;51.84
81151;BME280;70629;-26.026;27.976;2023-07-30T03:35:35;86520.78;;;7.23;51.22
81151;BME280;70629;-26.026;27.976;2023-07-30T03:37:09;86515.34;;;7.44;51.48
81151;BME280;70629;-26.026;27.976;2023-07-30T03:38:44;86522.75;;;7.23;52.12
81151;BME280;70629;-26.026;27.976;2023-07-30T03:40:19;86514.78;;;7.46;51.17
81151;BME280;70629;-26.026;27.976;2023-07-30T03:41:54;86515.88;;;7.20;51.51
81151;BME280;70629;-26.026;27.976;2023-07-30T03:43:29;86521.41;;;7.00;51.43
81151;BME280;70629;-26.026;27.976;2023-07-30T03:45:04;86534.34;;;7.16;50.99
81151;BME280;70629;-26.026;27.976;2023-07-30T03:46:40;86532.34;;;7.04;52.11
81151;BME280;70629;-26.026;27.976;2023-07-30T03:48:15;86523.13;;;7.40;51.08
81151;BME280;70629;-26.026;27.976;2023-07-30T03:49:50;86525.59;;;7.03;51.64
81151;BME280;70629;-26.026;27.976;2023-07-30T03:51:25;86518.44;;;7.18;51.67
81151;BME280;70629;-26.026;27.976;2023-07-30T03:53:00;86529.59;;;7.14;50.39
81151;BME280;70629;-26.026;27.976;2023-07-30T03:54:35;86540.47;;;7.06;51.41
81151;BME280;70629;-26.026;27.976;2023-07-30T03:56:09;86534.34;;;7.16;50.48
81151;BME280;70629;-26.026;27.976;2023-07-30T03:57:44;86534.72;;;7.22;50.82
81151;BME280;70629;-26.026;27.976;2023-07-30T03:59:19;86542.25;;;7.14;51.74
81151;BME280;70629;-26.026;27.976;2023-07-30T04:00:54;86537.28;;;7.20;51.58
81151;BME280;70629;-26.026;27.976;2023-07-30T04:02:29;86541.88;;;7.07;52.32
81151;BME280;70629;-26.026;27.976;2023-07-30T04:04:04;86538.88;;;7.01;52.19
81151;BME280;70629;-26.026;27.976;2023-07-30T04:05:39;86554.19;;;7.01;52.60
81151;BME280;70629;-26.026;27.976;2023-07-30T04:07:14;86547.53;;;6.90;52.67
81151;BME280;70629;-26.026;27.976;2023-07-30T04:08:49;86545.03;;;6.83;52.49
81151;BME280;70629;-26.026;27.976;2023-07-30T04:10:23;86549.19;;;6.74;53.01
81151;BME280;70629;-26.026;27.976;2023-07-30T04:11:58;86548.31;;;6.81;51.96
81151;BME280;70629;-26.026;27.976;2023-07-30T04:13:34;86555.06;;;7.15;52.13
81151;BME280;70629;-26.026;27.976;2023-07-30T04:15:09;86560.03;;;6.76;52.94
81151;BME280;70629;-26.026;27.976;2023-07-30T04:16:44;86559.19;;;6.74;52.81
81151;BME280;70629;-26.026;27.976;2023-07-30T04:18:21;86551.94;;;6.86;52.00
81151;BME280;70629;-26.026;27.976;2023-07-30T04:19:57;86556.97;;;7.03;52.49
81151;BME280;70629;-26.026;27.976;2023-07-30T04:21:32;86559.38;;;6.66;52.71
81151;BME280;70629;-26.026;27.976;2023-07-30T04:23:06;86566.13;;;6.67;52.73
81151;BME280;70629;-26.026;27.976;2023-07-30T04:24:42;86565.09;;;6.51;53.77
81151;BME280;70629;-26.026;27.976;2023-07-30T04:26:17;86567.41;;;6.87;52.03
81151;BME280;70629;-26.026;27.976;2023-07-30T04:27:52;86573.00;;;6.91;52.50
81151;BME280;70629;-26.026;27.976;2023-07-30T04:29:27;86572.94;;;6.58;53.09
81151;BME280;70629;-26.026;27.976;2023-07-30T04:31:02;86570.97;;;6.59;54.07
81151;BME280;70629;-26.026;27.976;2023-07-30T04:32:37;86573.38;;;6.55;53.95
81151;BME280;70629;-26.026;27.976;2023-07-30T04:34:12;86583.88;;;6.41;54.36
81151;BME280;70629;-26.026;27.976;2023-07-30T04:35:48;86580.50;;;6.41;54.05
81151;BME280;70629;-26.026;27.976;2023-07-30T04:37:23;86575.63;;;6.58;53.39
81151;BME280;70629;-26.026;27.976;2023-07-30T04:38:57;86578.66;;;6.65;53.20
81151;BME280;70629;-26.026;27.976;2023-07-30T04:40:32;86584.25;;;6.47;54.66
81151;BME280;70629;-26.026;27.976;2023-07-30T04:42:07;86596.41;;;6.60;53.49
81151;BME280;70629;-26.026;27.976;2023-07-30T04:43:42;86592.59;;;6.63;53.90
81151;BME280;70629;-26.026;27.976;2023-07-30T04:45:17;86588.56;;;6.74;54.28
81151;BME280;70629;-26.026;27.976;2023-07-30T04:46:51;86588.22;;;6.68;54.06
81151;BME280;70629;-26.026;27.976;2023-07-30T04:48:26;86590.81;;;6.35;55.33
81151;BME280;70629;-26.026;27.976;2023-07-30T04:50:01;86598.06;;;6.44;55.72
81151;BME280;70629;-26.026;27.976;2023-07-30T04:51:36;86608.44;;;6.71;54.63
81151;BME280;70629;-26.026;27.976;2023-07-30T04:53:13;86600.72;;;6.65;54.71
81151;BME280;70629;-26.026;27.976;2023-07-30T04:54:48;86594.94;;;6.47;55.70
81151;BME280;70629;-26.026;27.976;2023-07-30T04:56:23;86603.22;;;6.51;55.53
81151;BME280;70629;-26.026;27.976;2023-07-30T04:58:00;86596.47;;;6.72;55.27
81151;BME280;70629;-26.026;27.976;2023-07-30T04:59:35;86600.09;;;6.55;55.26
81151;BME280;70629;-26.026;27.976;2023-07-30T05:01:10;86603.91;;;6.52;56.74
81151;BME280;70629;-26.026;27.976;2023-07-30T05:02:45;86600.84;;;6.25;57.62
81151;BME280;70629;-26.026;27.976;2023-07-30T05:04:20;86607.25;;;6.31;56.96
81151;BME280;70629;-26.026;27.976;2023-07-30T05:05:54;86605.06;;;6.49;56.44
81151;BME280;70629;-26.026;27.976;2023-07-30T05:07:29;86620.19;;;6.56;56.31
81151;BME280;70629;-26.026;27.976;2023-07-30T05:09:04;86618.63;;;6.32;56.88
81151;BME280;70629;-26.026;27.976;2023-07-30T05:10:40;86608.69;;;6.23;57.02
81151;BME280;70629;-26.026;27.976;2023-07-30T05:12:15;86604.78;;;6.24;57.57
81151;BME280;70629;-26.026;27.976;2023-07-30T05:13:50;86618.13;;;6.24;56.87
81151;BME280;70629;-26.026;27.976;2023-07-30T05:15:25;86611.81;;;6.19;57.22
81151;BME280;70629;-26.026;27.976;2023-07-30T05:17:00;86611.91;;;6.31;56.70
81151;BME280;70629;-26.026;27.976;2023-07-30T05:18:35;86616.00;;;6.22;56.95
81151;BME280;70629;-26.026;27.976;2023-07-30T05:20:10;86618.78;;;6.55;56.13
81151;BME280;70629;-26.026;27.976;2023-07-30T05:21:45;86612.00;;;6.11;57.02
81151;BME280;70629;-26.026;27.976;2023-07-30T05:23:20;86613.78;;;6.18;57.03
81151;BME280;70629;-26.026;27.976;2023-07-30T05:24:55;86615.94;;;6.10;57.13
81151;BME280;70629;-26.026;27.976;2023-07-30T05:26:30;86615.09;;;6.08;56.81
81151;BME280;70629;-26.026;27.976;2023-07-30T05:28:05;86620.78;;;6.24;56.14
81151;BME280;70629;-26.026;27.976;2023-07-30T05:29:40;86627.41;;;6.23;56.32
81151;BME280;70629;-26.026;27.976;2023-07-30T05:31:15;86633.44;;;6.23;56.91
81151;BME280;70629;-26.026;27.976;2023-07-30T05:32:50;86633.06;;;6.07;57.51
81151;BME280;70629;-26.026;27.976;2023-07-30T05:34:25;86634.81;;;6.34;56.51
81151;BME280;70629;-26.026;27.976;2023-07-30T05:36:00;86637.13;;;6.49;56.52
81151;BME280;70629;-26.026;27.976;2023-07-30T05:37:34;86637.69;;;6.47;55.75
81151;BME280;70629;-26.026;27.976;2023-07-30T05:39:09;86644.22;;;6.35;56.74
81151;BME280;70629;-26.026;27.976;2023-07-30T05:40:45;86652.03;;;6.94;54.38
81151;BME280;70629;-26.026;27.976;2023-07-30T05:42:20;86656.19;;;6.55;55.19
81151;BME280;70629;-26.026;27.976;2023-07-30T05:43:55;86671.97;;;6.51;56.72
81151;BME280;70629;-26.026;27.976;2023-07-30T05:45:29;86675.22;;;6.49;56.52
81151;BME280;70629;-26.026;27.976;2023-07-30T05:47:04;86668.53;;;6.39;56.76
81151;BME280;70629;-26.026;27.976;2023-07-30T05:48:39;86668.41;;;6.27;56.27
81151;BME280;70629;-26.026;27.976;2023-07-30T05:50:13;86670.38;;;6.27;56.57
81151;BME280;70629;-26.026;27.976;2023-07-30T05:51:48;86670.75;;;6.11;56.59
81151;BME280;70629;-26.026;27.976;2023-07-30T05:53:23;86676.13;;;6.33;56.60
81151;BME280;70629;-26.026;27.976;2023-07-30T05:54:58;86683.28;;;6.40;56.38
81151;BME280;70629;-26.026;27.976;2023-07-30T05:56:33;86681.78;;;6.58;55.73
81151;BME280;70629;-26.026;27.976;2023-07-30T05:58:08;86694.03;;;6.51;55.44
81151;BME280;70629;-26.026;27.976;2023-07-30T05:59:43;86690.50;;;6.28;55.26
81151;BME280;70629;-26.026;27.976;2023-07-30T06:01:18;86707.25;;;6.59;54.81
81151;BME280;70629;-26.026;27.976;2023-07-30T06:02:54;86697.59;;;6.75;53.54
81151;BME280;70629;-26.026;27.976;2023-07-30T06:04:29;86695.63;;;6.45;55.31
81151;BME280;70629;-26.026;27.976;2023-07-30T06:06:05;86709.06;;;6.26;55.31
81151;BME280;70629;-26.026;27.976;2023-07-30T06:07:39;86699.34;;;6.30;54.83
81151;BME280;70629;-26.026;27.976;2023-07-30T06:09:14;86707.56;;;6.03;55.12
81151;BME280;70629;-26.026;27.976;2023-07-30T06:10:49;86719.38;;;6.41;54.61
81151;BME280;70629;-26.026;27.976;2023-07-30T06:12:24;86705.56;;;6.13;55.20
81151;BME280;70629;-26.026;27.976;2023-07-30T06:13:59;86713.84;;;6.58;54.53
81151;BME280;70629;-26.026;27.976;2023-07-30T06:15:33;86708.69;;;8.90;47.85
81151;BME280;70629;-26.026;27.976;2023-07-30T06:17:09;86726.19;;;8.91;47.08
81151;BME280;70629;-26.026;27.976;2023-07-30T06:18:44;86721.88;;;8.18;49.77
81151;BME280;70629;-26.026;27.976;2023-07-30T06:20:19;86716.47;;;7.62;50.42
81151;BME280;70629;-26.026;27.976;2023-07-30T06:21:53;86729.09;;;8.16;49.52
81151;BME280;70629;-26.026;27.976;2023-07-30T06:23:28;86729.91;;;8.74;48.38
81151;BME280;70629;-26.026;27.976;2023-07-30T06:25:04;86734.31;;;7.48;51.16
81151;BME280;70629;-26.026;27.976;2023-07-30T06:26:39;86728.69;;;7.23;52.31
81151;BME280;70629;-26.026;27.976;2023-07-30T06:28:14;86719.97;;;7.98;48.90
81151;BME280;70629;-26.026;27.976;2023-07-30T06:29:49;86734.44;;;7.50;50.90
81151;BME280;70629;-26.026;27.976;2023-07-30T06:31:24;86740.84;;;7.78;50.45
81151;BME280;70629;-26.026;27.976;2023-07-30T06:32:59;86734.56;;;7.10;52.63
81151;BME280;70629;-26.026;27.976;2023-07-30T06:34:34;86753.31;;;7.00;53.52
81151;BME280;70629;-26.026;27.976;2023-07-30T06:36:09;86749.97;;;7.21;52.38
81151;BME280;70629;-26.026;27.976;2023-07-30T06:37:44;86744.63;;;7.21;52.15
81151;BME280;70629;-26.026;27.976;2023-07-30T06:39:19;86760.16;;;7.13;52.74
81151;BME280;70629;-26.026;27.976;2023-07-30T06:40:56;86763.16;;;6.76;53.00
81151;BME280;70629;-26.026;27.976;2023-07-30T06:42:32;86767.34;;;6.79;53.31
81151;BME280;70629;-26.026;27.976;2023-07-30T06:44:07;86771.53;;;6.92;53.38
81151;BME280;70629;-26.026;27.976;2023-07-30T06:45:43;86777.91;;;6.77;53.47
81151;BME280;70629;-26.026;27.976;2023-07-30T06:47:18;86784.22;;;6.41;54.82
81151;BME280;70629;-26.026;27.976;2023-07-30T06:48:52;86786.22;;;6.22;54.80
81151;BME280;70629;-26.026;27.976;2023-07-30T06:50:27;86795.63;;;6.23;55.46
81151;BME280;70629;-26.026;27.976;2023-07-30T06:52:02;86792.13;;;6.30;55.24
81151;BME280;70629;-26.026;27.976;2023-07-30T06:53:37;86797.47;;;6.30;54.82
81151;BME280;70629;-26.026;27.976;2023-07-30T06:55:12;86798.19;;;6.11;55.48
81151;BME280;70629;-26.026;27.976;2023-07-30T06:56:47;86799.94;;;6.47;54.10
81151;BME280;70629;-26.026;27.976;2023-07-30T06:58:22;86809.41;;;6.19;54.83
81151;BME280;70629;-26.026;27.976;2023-07-30T06:59:57;86816.38;;;6.53;54.13
81151;BME280;70629;-26.026;27.976;2023-07-30T07:01:32;86818.66;;;6.47;54.63
81151;BME280;70629;-26.026;27.976;2023-07-30T07:03:07;86819.41;;;6.69;55.05
81151;BME280;70629;-26.026;27.976;2023-07-30T07:04:43;86827.88;;;6.65;53.89
81151;BME280;70629;-26.026;27.976;2023-07-30T07:06:18;86830.56;;;6.55;53.15
81151;BME280;70629;-26.026;27.976;2023-07-30T07:07:52;86825.94;;;6.56;52.92
81151;BME280;70629;-26.026;27.976;2023-07-30T07:09:27;86827.88;;;6.65;53.51
81151;BME280;70629;-26.026;27.976;2023-07-30T07:11:02;86832.50;;;6.74;52.83
81151;BME280;70629;-26.026;27.976;2023-07-30T07:12:38;86833.63;;;6.71;53.44
81151;BME280;70629;-26.026;27.976;2023-07-30T07:14:13;86830.56;;;7.05;52.84
81151;BME280;70629;-26.026;27.976;2023-07-30T07:15:48;86821.25;;;7.37;51.44
81151;BME280;70629;-26.026;27.976;2023-07-30T07:17:22;86832.03;;;7.49;51.17
81151;BME280;70629;-26.026;27.976;2023-07-30T07:18:57;86841.06;;;7.44;50.35
81151;BME280;70629;-26.026;27.976;2023-07-30T07:20:32;86839.03;;;7.33;51.84
81151;BME280;70629;-26.026;27.976;2023-07-30T07:22:07;86837.97;;;7.47;50.80
81151;BME280;70629;-26.026;27.976;2023-07-30T07:23:41;86843.28;;;7.26;51.77
81151;BME280;70629;-26.026;27.976;2023-07-30T07:25:17;86845.56;;;7.51;50.23
81151;BME280;70629;-26.026;27.976;2023-07-30T07:26:53;86854.19;;;7.40;49.77
81151;BME280;70629;-26.026;27.976;2023-07-30T07:28:28;86856.38;;;7.22;49.87
81151;BME280;70629;-26.026;27.976;2023-07-30T07:30:04;86864.69;;;7.26;50.50
81151;BME280;70629;-26.026;27.976;2023-07-30T07:31:39;86852.34;;;7.12;49.87
81151;BME280;70629;-26.026;27.976;2023-07-30T07:33:15;86845.38;;;7.28;50.04
81151;BME280;70629;-26.026;27.976;2023-07-30T07:34:50;86848.13;;;7.91;48.54
81151;BME280;70629;-26.026;27.976;2023-07-30T07:36:25;86858.06;;;7.79;49.50
81151;BME280;70629;-26.026;27.976;2023-07-30T07:37:59;86863.78;;;7.64;49.88
81151;BME280;70629;-26.026;27.976;2023-07-30T07:39:34;86864.06;;;7.89;49.21
81151;BME280;70629;-26.026;27.976;2023-07-30T07:41:15;86865.44;;;7.69;49.87
81151;BME280;70629;-26.026;27.976;2023-07-30T07:42:50;86873.72;;;7.73;49.40
81151;BME280;70629;-26.026;27.976;2023-07-30T07:44:25;86873.03;;;7.52;50.68
81151;BME280;70629;-26.026;27.976;2023-07-30T07:46:00;86878.22;;;7.80;50.46
81151;BME280;70629;-26.026;27.976;2023-07-30T07:47:35;86874.59;;;7.45;50.59
81151;BME280;70629;-26.026;27.976;2023-07-30T07:49:10;86862.75;;;7.48;50.57
81151;BME280;70629;-26.026;27.976;2023-07-30T07:50:45;86871.66;;;7.41;50.21
81151;BME280;70629;-26.026;27.976;2023-07-30T07:52:20;86866.97;;;7.51;50.88
81151;BME280;70629;-26.026;27.976;2023-07-30T07:53:55;86878.22;;;7.49;50.70
81151;BME280;70629;-26.026;27.976;2023-07-30T07:55:30;86894.94;;;7.90;48.69
81151;BME280;70629;-26.026;27.976;2023-07-30T07:57:04;86888.22;;;7.80;48.86
81151;BME280;70629;-26.026;27.976;2023-07-30T07:58:39;86878.78;;;8.21;48.39
81151;BME280;70629;-26.026;27.976;2023-07-30T08:00:14;86886.75;;;7.88;48.41
81151;BME280;70629;-26.026;27.976;2023-07-30T08:01:49;86888.63;;;8.28;47.14
81151;BME280;70629;-26.026;27.976;2023-07-30T08:03:24;86891.31;;;8.28;46.79
81151;BME280;70629;-26.026;27.976;2023-07-30T08:05:02;86890.03;;;8.51;46.00
81151;BME280;70629;-26.026;27.976;2023-07-30T08:06:38;86897.75;;;8.56;45.38
81151;BME280;70629;-26.026;27.976;2023-07-30T08:08:13;86893.97;;;8.28;45.95
81151;BME280;70629;-26.026;27.976;2023-07-30T08:09:47;86897.53;;;8.21;46.12
81151;BME280;70629;-26.026;27.976;2023-07-30T08:11:22;86900.41;;;8.89;46.21
81151;BME280;70629;-26.026;27.976;2023-07-30T08:12:57;86895.22;;;8.70;45.01
81151;BME280;70629;-26.026;27.976;2023-07-30T08:14:32;86904.91;;;9.08;45.16
81151;BME280;70629;-26.026;27.976;2023-07-30T08:16:07;86897.00;;;9.33;45.07
81151;BME280;70629;-26.026;27.976;2023-07-30T08:17:42;86890.47;;;9.36;45.01